Saticoy, California
Current Conditions -  °F | °C
As of 11:51 AM on Friday 31 Oct 2014 (Local Time) from KOXR Reporting Station
Overcast Overcast  
Wind Chill: 21°   Ceiling: 4700
Heat Index: 21°   Visibility: 10mi
Dew Point: 13°   Wind: 5mph
Humidity: 63%   Direction: 90°E
Pressure: 29.94"   Gusts: NA
Location:  34.287°N, 119.172°W
Report Text: KOXR 311851Z 09004KT 10SM OVC047 21/13 A2994 RMK AO2 SLP138 T02060133
Loading
Personal Weather Stations






























Interactive Weather Map
Tropical Storm Tracking
New forecast layout! Learn more

10-Day Weather Forecast

Advertisements
Track Severe Weather on mobile